sensor_id;sensor_type;location;lat;lon;timestamp;P1;durP1;ratioP1;P2;durP2;ratioP2
34960;SDS011;30789;52.030;7.110;2022-08-25T00:00:33;6.18;;;1.52;;
34960;SDS011;30789;52.030;7.110;2022-08-25T00:02:59;3.92;;;1.85;;
34960;SDS011;30789;52.030;7.110;2022-08-25T00:05:26;6.32;;;1.80;;
34960;SDS011;30789;52.030;7.110;2022-08-25T00:07:53;3.00;;;2.15;;
34960;SDS011;30789;52.030;7.110;2022-08-25T00:10:19;2.25;;;1.63;;
34960;SDS011;30789;52.030;7.110;2022-08-25T00:12:46;1.70;;;1.55;;
34960;SDS011;30789;52.030;7.110;2022-08-25T00:15:12;1.48;;;1.38;;
34960;SDS011;30789;52.030;7.110;2022-08-25T00:17:40;2.38;;;1.70;;
34960;SDS011;30789;52.030;7.110;2022-08-25T00:20:06;1.88;;;1.45;;
34960;SDS011;30789;52.030;7.110;2022-08-25T00:22:33;2.03;;;1.70;;
34960;SDS011;30789;52.030;7.110;2022-08-25T00:25:00;2.70;;;1.40;;
34960;SDS011;30789;52.030;7.110;2022-08-25T00:27:26;7.97;;;1.80;;
34960;SDS011;30789;52.030;7.110;2022-08-25T00:29:52;3.17;;;1.65;;
34960;SDS011;30789;52.030;7.110;2022-08-25T00:32:19;1.70;;;1.60;;
34960;SDS011;30789;52.030;7.110;2022-08-25T00:34:47;2.28;;;1.60;;
34960;SDS011;30789;52.030;7.110;2022-08-25T00:37:13;1.52;;;1.33;;
34960;SDS011;30789;52.030;7.110;2022-08-25T00:39:40;2.95;;;2.05;;
34960;SDS011;30789;52.030;7.110;2022-08-25T00:42:06;4.25;;;1.73;;
34960;SDS011;30789;52.030;7.110;2022-08-25T00:44:33;2.10;;;1.70;;
34960;SDS011;30789;52.030;7.110;2022-08-25T00:47:01;2.20;;;2.00;;
34960;SDS011;30789;52.030;7.110;2022-08-25T00:49:28;2.38;;;1.52;;
34960;SDS011;30789;52.030;7.110;2022-08-25T00:51:57;4.18;;;2.00;;
34960;SDS011;30789;52.030;7.110;2022-08-25T00:54:25;3.30;;;1.52;;
34960;SDS011;30789;52.030;7.110;2022-08-25T00:56:52;2.28;;;1.70;;
34960;SDS011;30789;52.030;7.110;2022-08-25T00:59:19;2.42;;;1.63;;
34960;SDS011;30789;52.030;7.110;2022-08-25T01:01:46;2.60;;;1.80;;
34960;SDS011;30789;52.030;7.110;2022-08-25T01:04:13;3.63;;;1.95;;
34960;SDS011;30789;52.030;7.110;2022-08-25T01:06:40;3.05;;;1.63;;
34960;SDS011;30789;52.030;7.110;2022-08-25T01:09:09;3.63;;;2.00;;
34960;SDS011;30789;52.030;7.110;2022-08-25T01:11:35;1.95;;;1.75;;
34960;SDS011;30789;52.030;7.110;2022-08-25T01:14:02;1.70;;;1.60;;
34960;SDS011;30789;52.030;7.110;2022-08-25T01:16:30;2.75;;;1.60;;
34960;SDS011;30789;52.030;7.110;2022-08-25T01:18:57;3.08;;;2.00;;
34960;SDS011;30789;52.030;7.110;2022-08-25T01:21:26;2.22;;;1.83;;
34960;SDS011;30789;52.030;7.110;2022-08-25T01:23:53;1.67;;;1.30;;
34960;SDS011;30789;52.030;7.110;2022-08-25T01:26:20;3.55;;;1.80;;
34960;SDS011;30789;52.030;7.110;2022-08-25T01:28:48;3.30;;;1.85;;
34960;SDS011;30789;52.030;7.110;2022-08-25T01:31:32;2.40;;;1.70;;
34960;SDS011;30789;52.030;7.110;2022-08-25T01:33:59;3.28;;;1.70;;
34960;SDS011;30789;52.030;7.110;2022-08-25T01:36:27;2.80;;;1.98;;
34960;SDS011;30789;52.030;7.110;2022-08-25T01:38:54;3.28;;;1.77;;
34960;SDS011;30789;52.030;7.110;2022-08-25T01:41:21;2.65;;;1.58;;
34960;SDS011;30789;52.030;7.110;2022-08-25T01:43:50;2.90;;;1.75;;
34960;SDS011;30789;52.030;7.110;2022-08-25T01:46:17;2.05;;;1.60;;
34960;SDS011;30789;52.030;7.110;2022-08-25T01:48:43;2.20;;;1.77;;
34960;SDS011;30789;52.030;7.110;2022-08-25T01:51:09;2.25;;;1.63;;
34960;SDS011;30789;52.030;7.110;2022-08-25T01:53:37;2.25;;;1.77;;
34960;SDS011;30789;52.030;7.110;2022-08-25T01:56:07;2.58;;;1.75;;
34960;SDS011;30789;52.030;7.110;2022-08-25T02:01:02;3.22;;;2.20;;
34960;SDS011;30789;52.030;7.110;2022-08-25T02:03:29;2.38;;;2.03;;
34960;SDS011;30789;52.030;7.110;2022-08-25T02:05:56;2.85;;;1.73;;
34960;SDS011;30789;52.030;7.110;2022-08-25T02:08:23;3.33;;;2.03;;
34960;SDS011;30789;52.030;7.110;2022-08-25T02:10:52;1.85;;;1.73;;
34960;SDS011;30789;52.030;7.110;2022-08-25T02:13:19;3.17;;;2.30;;
34960;SDS011;30789;52.030;7.110;2022-08-25T02:15:46;3.03;;;2.10;;
34960;SDS011;30789;52.030;7.110;2022-08-25T02:18:14;3.45;;;2.08;;
34960;SDS011;30789;52.030;7.110;2022-08-25T02:20:40;4.10;;;2.22;;
34960;SDS011;30789;52.030;7.110;2022-08-25T02:23:07;3.20;;;1.65;;
34960;SDS011;30789;52.030;7.110;2022-08-25T02:25:35;2.28;;;1.63;;
34960;SDS011;30789;52.030;7.110;2022-08-25T02:28:03;2.20;;;1.98;;
34960;SDS011;30789;52.030;7.110;2022-08-25T02:30:30;3.22;;;2.22;;
34960;SDS011;30789;52.030;7.110;2022-08-25T02:32:56;2.20;;;2.00;;
34960;SDS011;30789;52.030;7.110;2022-08-25T02:35:23;2.00;;;1.85;;
34960;SDS011;30789;52.030;7.110;2022-08-25T02:37:49;2.60;;;2.10;;
34960;SDS011;30789;52.030;7.110;2022-08-25T02:40:16;2.38;;;1.95;;
34960;SDS011;30789;52.030;7.110;2022-08-25T02:42:42;2.45;;;2.10;;
34960;SDS011;30789;52.030;7.110;2022-08-25T02:45:10;2.53;;;2.17;;
34960;SDS011;30789;52.030;7.110;2022-08-25T02:47:36;3.72;;;2.33;;
34960;SDS011;30789;52.030;7.110;2022-08-25T02:50:03;3.05;;;2.55;;
34960;SDS011;30789;52.030;7.110;2022-08-25T02:52:29;3.30;;;2.50;;
34960;SDS011;30789;52.030;7.110;2022-08-25T02:54:55;2.13;;;1.92;;
34960;SDS011;30789;52.030;7.110;2022-08-25T02:57:22;3.78;;;2.40;;
34960;SDS011;30789;52.030;7.110;2022-08-25T02:59:48;3.90;;;2.55;;
34960;SDS011;30789;52.030;7.110;2022-08-25T03:02:17;2.33;;;1.90;;
34960;SDS011;30789;52.030;7.110;2022-08-25T03:04:43;4.10;;;2.33;;
34960;SDS011;30789;52.030;7.110;2022-08-25T03:07:09;2.58;;;2.38;;
34960;SDS011;30789;52.030;7.110;2022-08-25T03:09:36;2.42;;;2.13;;
34960;SDS011;30789;52.030;7.110;2022-08-25T03:12:03;2.28;;;2.05;;
34960;SDS011;30789;52.030;7.110;2022-08-25T03:14:29;3.22;;;1.85;;
34960;SDS011;30789;52.030;7.110;2022-08-25T03:16:56;2.97;;;2.20;;
34960;SDS011;30789;52.030;7.110;2022-08-25T03:19:23;2.70;;;2.50;;
34960;SDS011;30789;52.030;7.110;2022-08-25T03:21:50;3.13;;;2.50;;
34960;SDS011;30789;52.030;7.110;2022-08-25T03:24:20;2.80;;;2.40;;
34960;SDS011;30789;52.030;7.110;2022-08-25T03:26:46;3.45;;;2.30;;
34960;SDS011;30789;52.030;7.110;2022-08-25T03:29:17;4.15;;;2.70;;
34960;SDS011;30789;52.030;7.110;2022-08-25T03:31:44;2.78;;;2.50;;
34960;SDS011;30789;52.030;7.110;2022-08-25T03:34:10;3.78;;;2.40;;
34960;SDS011;30789;52.030;7.110;2022-08-25T03:36:38;3.10;;;2.30;;
34960;SDS011;30789;52.030;7.110;2022-08-25T03:39:04;7.05;;;2.42;;
34960;SDS011;30789;52.030;7.110;2022-08-25T03:41:32;4.22;;;2.33;;
34960;SDS011;30789;52.030;7.110;2022-08-25T03:43:59;3.05;;;2.40;;
34960;SDS011;30789;52.030;7.110;2022-08-25T03:46:26;3.22;;;2.42;;
34960;SDS011;30789;52.030;7.110;2022-08-25T03:48:53;5.45;;;2.63;;
34960;SDS011;30789;52.030;7.110;2022-08-25T03:51:20;3.20;;;2.90;;
34960;SDS011;30789;52.030;7.110;2022-08-25T03:53:48;5.78;;;2.75;;
34960;SDS011;30789;52.030;7.110;2022-08-25T03:56:14;3.00;;;2.30;;
34960;SDS011;30789;52.030;7.110;2022-08-25T03:58:41;5.05;;;2.50;;
34960;SDS011;30789;52.030;7.110;2022-08-25T04:01:07;2.58;;;2.33;;
34960;SDS011;30789;52.030;7.110;2022-08-25T04:03:34;2.78;;;2.47;;
34960;SDS011;30789;52.030;7.110;2022-08-25T04:06:00;5.30;;;2.70;;
34960;SDS011;30789;52.030;7.110;2022-08-25T04:08:27;5.93;;;2.72;;
34960;SDS011;30789;52.030;7.110;2022-08-25T04:10:54;2.58;;;2.38;;
34960;SDS011;30789;52.030;7.110;2022-08-25T04:13:21;2.85;;;2.55;;
34960;SDS011;30789;52.030;7.110;2022-08-25T04:15:47;3.17;;;2.67;;
34960;SDS011;30789;52.030;7.110;2022-08-25T04:18:13;5.18;;;2.58;;
34960;SDS011;30789;52.030;7.110;2022-08-25T04:20:40;3.00;;;2.67;;
34960;SDS011;30789;52.030;7.110;2022-08-25T04:23:07;6.15;;;2.35;;
34960;SDS011;30789;52.030;7.110;2022-08-25T04:25:33;3.83;;;2.85;;
34960;SDS011;30789;52.030;7.110;2022-08-25T04:28:01;6.35;;;2.65;;
34960;SDS011;30789;52.030;7.110;2022-08-25T04:30:27;7.15;;;2.65;;
34960;SDS011;30789;52.030;7.110;2022-08-25T04:32:54;3.55;;;2.60;;
34960;SDS011;30789;52.030;7.110;2022-08-25T04:35:20;4.70;;;3.03;;
34960;SDS011;30789;52.030;7.110;2022-08-25T04:37:47;4.78;;;3.17;;
34960;SDS011;30789;52.030;7.110;2022-08-25T04:40:13;5.00;;;2.80;;
34960;SDS011;30789;52.030;7.110;2022-08-25T04:42:40;3.10;;;2.78;;
34960;SDS011;30789;52.030;7.110;2022-08-25T04:45:08;3.95;;;2.83;;
34960;SDS011;30789;52.030;7.110;2022-08-25T04:47:35;2.67;;;2.38;;
34960;SDS011;30789;52.030;7.110;2022-08-25T04:50:02;5.63;;;2.67;;
34960;SDS011;30789;52.030;7.110;2022-08-25T04:52:28;6.30;;;3.08;;
34960;SDS011;30789;52.030;7.110;2022-08-25T04:54:55;5.15;;;2.95;;
34960;SDS011;30789;52.030;7.110;2022-08-25T04:57:21;3.30;;;3.00;;
34960;SDS011;30789;52.030;7.110;2022-08-25T04:59:47;2.50;;;2.30;;
34960;SDS011;30789;52.030;7.110;2022-08-25T05:02:15;2.72;;;2.38;;
34960;SDS011;30789;52.030;7.110;2022-08-25T05:04:42;5.82;;;2.35;;
34960;SDS011;30789;52.030;7.110;2022-08-25T05:07:08;3.33;;;2.55;;
34960;SDS011;30789;52.030;7.110;2022-08-25T05:09:34;2.42;;;2.22;;
34960;SDS011;30789;52.030;7.110;2022-08-25T05:12:02;3.55;;;2.85;;
34960;SDS011;30789;52.030;7.110;2022-08-25T05:14:28;3.03;;;2.28;;
34960;SDS011;30789;52.030;7.110;2022-08-25T05:16:55;9.23;;;2.78;;
34960;SDS011;30789;52.030;7.110;2022-08-25T05:19:23;4.45;;;2.80;;
34960;SDS011;30789;52.030;7.110;2022-08-25T05:21:50;7.22;;;2.58;;
34960;SDS011;30789;52.030;7.110;2022-08-25T05:24:16;5.28;;;2.45;;
34960;SDS011;30789;52.030;7.110;2022-08-25T05:26:43;3.97;;;2.53;;
34960;SDS011;30789;52.030;7.110;2022-08-25T05:29:09;3.10;;;2.80;;
34960;SDS011;30789;52.030;7.110;2022-08-25T05:31:36;3.05;;;2.70;;
34960;SDS011;30789;52.030;7.110;2022-08-25T05:34:03;5.03;;;2.63;;
34960;SDS011;30789;52.030;7.110;2022-08-25T05:36:31;3.05;;;2.33;;
34960;SDS011;30789;52.030;7.110;2022-08-25T05:38:58;6.13;;;2.67;;
34960;SDS011;30789;52.030;7.110;2022-08-25T05:41:26;4.80;;;3.30;;
34960;SDS011;30789;52.030;7.110;2022-08-25T05:43:52;6.03;;;3.20;;
34960;SDS011;30789;52.030;7.110;2022-08-25T05:46:19;4.10;;;2.70;;
34960;SDS011;30789;52.030;7.110;2022-08-25T05:48:46;5.38;;;3.47;;
34960;SDS011;30789;52.030;7.110;2022-08-25T05:51:12;4.15;;;2.92;;
34960;SDS011;30789;52.030;7.110;2022-08-25T05:53:41;6.60;;;3.70;;
34960;SDS011;30789;52.030;7.110;2022-08-25T05:56:08;4.68;;;3.05;;
34960;SDS011;30789;52.030;7.110;2022-08-25T05:58:34;5.28;;;3.17;;
34960;SDS011;30789;52.030;7.110;2022-08-25T06:01:01;3.53;;;2.97;;
34960;SDS011;30789;52.030;7.110;2022-08-25T06:03:48;4.25;;;2.80;;
34960;SDS011;30789;52.030;7.110;2022-08-25T06:06:17;4.15;;;3.35;;
34960;SDS011;30789;52.030;7.110;2022-08-25T06:08:45;8.23;;;3.40;;
34960;SDS011;30789;52.030;7.110;2022-08-25T06:11:11;4.68;;;3.10;;
34960;SDS011;30789;52.030;7.110;2022-08-25T06:13:38;7.68;;;3.70;;
34960;SDS011;30789;52.030;7.110;2022-08-25T06:16:05;4.18;;;2.97;;
34960;SDS011;30789;52.030;7.110;2022-08-25T06:18:31;4.05;;;3.20;;
34960;SDS011;30789;52.030;7.110;2022-08-25T06:20:58;5.97;;;3.20;;
34960;SDS011;30789;52.030;7.110;2022-08-25T06:23:24;3.78;;;3.03;;
34960;SDS011;30789;52.030;7.110;2022-08-25T06:25:52;3.97;;;3.28;;
34960;SDS011;30789;52.030;7.110;2022-08-25T06:28:20;5.97;;;3.22;;
34960;SDS011;30789;52.030;7.110;2022-08-25T06:30:46;3.72;;;2.83;;
34960;SDS011;30789;52.030;7.110;2022-08-25T06:33:13;3.53;;;3.00;;
34960;SDS011;30789;52.030;7.110;2022-08-25T06:35:40;4.80;;;2.70;;
34960;SDS011;30789;52.030;7.110;2022-08-25T06:38:06;4.25;;;3.03;;
34960;SDS011;30789;52.030;7.110;2022-08-25T06:40:32;5.80;;;3.10;;
34960;SDS011;30789;52.030;7.110;2022-08-25T06:43:00;4.93;;;2.88;;
34960;SDS011;30789;52.030;7.110;2022-08-25T06:45:30;3.70;;;3.22;;
34960;SDS011;30789;52.030;7.110;2022-08-25T06:47:57;3.00;;;2.60;;
34960;SDS011;30789;52.030;7.110;2022-08-25T06:50:24;4.88;;;2.72;;
34960;SDS011;30789;52.030;7.110;2022-08-25T06:52:50;5.47;;;2.58;;
34960;SDS011;30789;52.030;7.110;2022-08-25T06:55:17;5.15;;;2.83;;
34960;SDS011;30789;52.030;7.110;2022-08-25T06:57:43;3.33;;;2.58;;
34960;SDS011;30789;52.030;7.110;2022-08-25T07:00:11;3.75;;;2.90;;
34960;SDS011;30789;52.030;7.110;2022-08-25T07:02:37;4.75;;;2.95;;
34960;SDS011;30789;52.030;7.110;2022-08-25T07:05:04;6.75;;;2.70;;
34960;SDS011;30789;52.030;7.110;2022-08-25T07:07:31;3.65;;;2.58;;
34960;SDS011;30789;52.030;7.110;2022-08-25T07:09:57;4.80;;;2.75;;
34960;SDS011;30789;52.030;7.110;2022-08-25T07:12:23;4.20;;;2.67;;
34960;SDS011;30789;52.030;7.110;2022-08-25T07:14:50;4.47;;;2.80;;
34960;SDS011;30789;52.030;7.110;2022-08-25T07:17:17;3.92;;;2.80;;
34960;SDS011;30789;52.030;7.110;2022-08-25T07:19:44;6.07;;;3.15;;
34960;SDS011;30789;52.030;7.110;2022-08-25T07:22:10;4.35;;;3.03;;
34960;SDS011;30789;52.030;7.110;2022-08-25T07:24:37;8.23;;;2.88;;
34960;SDS011;30789;52.030;7.110;2022-08-25T07:27:03;4.05;;;2.83;;
34960;SDS011;30789;52.030;7.110;2022-08-25T07:29:30;4.88;;;3.17;;
34960;SDS011;30789;52.030;7.110;2022-08-25T07:31:57;2.88;;;2.55;;
34960;SDS011;30789;52.030;7.110;2022-08-25T07:34:25;4.43;;;2.88;;
34960;SDS011;30789;52.030;7.110;2022-08-25T07:37:09;4.80;;;3.03;;
34960;SDS011;30789;52.030;7.110;2022-08-25T07:39:36;3.85;;;2.97;;
34960;SDS011;30789;52.030;7.110;2022-08-25T07:42:02;6.18;;;2.88;;
34960;SDS011;30789;52.030;7.110;2022-08-25T07:44:28;4.97;;;3.20;;
34960;SDS011;30789;52.030;7.110;2022-08-25T07:46:55;5.22;;;3.08;;
34960;SDS011;30789;52.030;7.110;2022-08-25T07:49:22;3.78;;;2.72;;
34960;SDS011;30789;52.030;7.110;2022-08-25T07:51:50;6.00;;;3.60;;
34960;SDS011;30789;52.030;7.110;2022-08-25T07:54:17;3.70;;;3.10;;
34960;SDS011;30789;52.030;7.110;2022-08-25T07:56:43;4.53;;;2.95;;
34960;SDS011;30789;52.030;7.110;2022-08-25T07:59:09;5.40;;;3.25;;
34960;SDS011;30789;52.030;7.110;2022-08-25T08:01:36;3.78;;;2.90;;
34960;SDS011;30789;52.030;7.110;2022-08-25T08:04:02;4.47;;;2.78;;
34960;SDS011;30789;52.030;7.110;2022-08-25T08:06:29;4.00;;;3.17;;
34960;SDS011;30789;52.030;7.110;2022-08-25T08:08:56;3.83;;;3.08;;
34960;SDS011;30789;52.030;7.110;2022-08-25T08:11:24;4.88;;;3.35;;
34960;SDS011;30789;52.030;7.110;2022-08-25T08:13:51;6.82;;;3.58;;
34960;SDS011;30789;52.030;7.110;2022-08-25T08:16:19;6.18;;;3.45;;
34960;SDS011;30789;52.030;7.110;2022-08-25T08:18:46;4.60;;;3.05;;
34960;SDS011;30789;52.030;7.110;2022-08-25T08:21:13;3.95;;;3.13;;
34960;SDS011;30789;52.030;7.110;2022-08-25T08:23:39;4.63;;;3.17;;
34960;SDS011;30789;52.030;7.110;2022-08-25T08:26:07;6.78;;;3.35;;
34960;SDS011;30789;52.030;7.110;2022-08-25T08:28:33;3.40;;;3.10;;
34960;SDS011;30789;52.030;7.110;2022-08-25T08:30:59;6.90;;;3.28;;
34960;SDS011;30789;52.030;7.110;2022-08-25T08:33:26;4.50;;;3.65;;
34960;SDS011;30789;52.030;7.110;2022-08-25T08:35:56;4.85;;;3.58;;
34960;SDS011;30789;52.030;7.110;2022-08-25T08:38:23;3.97;;;3.20;;
34960;SDS011;30789;52.030;7.110;2022-08-25T08:40:52;5.35;;;3.50;;
34960;SDS011;30789;52.030;7.110;2022-08-25T08:43:43;3.97;;;3.25;;
34960;SDS011;30789;52.030;7.110;2022-08-25T08:46:10;4.97;;;3.75;;
34960;SDS011;30789;52.030;7.110;2022-08-25T08:48:43;7.47;;;3.65;;
34960;SDS011;30789;52.030;7.110;2022-08-25T08:51:16;4.45;;;3.40;;
34960;SDS011;30789;52.030;7.110;2022-08-25T08:53:44;6.72;;;3.72;;
34960;SDS011;30789;52.030;7.110;2022-08-25T08:56:14;7.68;;;4.10;;
34960;SDS011;30789;52.030;7.110;2022-08-25T08:58:43;6.32;;;3.80;;
34960;SDS011;30789;52.030;7.110;2022-08-25T09:01:12;4.78;;;3.95;;
34960;SDS011;30789;52.030;7.110;2022-08-25T09:03:42;6.75;;;4.07;;
34960;SDS011;30789;52.030;7.110;2022-08-25T09:06:10;5.00;;;3.42;;
34960;SDS011;30789;52.030;7.110;2022-08-25T09:08:37;4.95;;;4.20;;
34960;SDS011;30789;52.030;7.110;2022-08-25T09:11:06;6.90;;;4.35;;
34960;SDS011;30789;52.030;7.110;2022-08-25T09:13:40;6.32;;;3.70;;
34960;SDS011;30789;52.030;7.110;2022-08-25T09:16:11;6.22;;;3.75;;
34960;SDS011;30789;52.030;7.110;2022-08-25T09:19:01;8.93;;;3.92;;
34960;SDS011;30789;52.030;7.110;2022-08-25T09:21:29;5.68;;;4.00;;
34960;SDS011;30789;52.030;7.110;2022-08-25T09:24:08;5.45;;;3.97;;
34960;SDS011;30789;52.030;7.110;2022-08-25T09:26:38;5.43;;;3.88;;
34960;SDS011;30789;52.030;7.110;2022-08-25T09:29:11;5.57;;;4.03;;
34960;SDS011;30789;52.030;7.110;2022-08-25T09:31:40;6.13;;;4.47;;
34960;SDS011;30789;52.030;7.110;2022-08-25T09:34:10;5.10;;;4.03;;
34960;SDS011;30789;52.030;7.110;2022-08-25T09:36:36;5.85;;;4.20;;
34960;SDS011;30789;52.030;7.110;2022-08-25T09:39:03;5.03;;;3.78;;
34960;SDS011;30789;52.030;7.110;2022-08-25T09:41:40;5.82;;;3.95;;
34960;SDS011;30789;52.030;7.110;2022-08-25T09:44:12;6.32;;;3.80;;
34960;SDS011;30789;52.030;7.110;2022-08-25T09:46:42;6.90;;;3.85;;
34960;SDS011;30789;52.030;7.110;2022-08-25T09:49:18;5.13;;;4.07;;
34960;SDS011;30789;52.030;7.110;2022-08-25T09:51:45;5.18;;;4.22;;
34960;SDS011;30789;52.030;7.110;2022-08-25T09:54:15;5.90;;;3.83;;
34960;SDS011;30789;52.030;7.110;2022-08-25T09:56:47;7.15;;;4.18;;
34960;SDS011;30789;52.030;7.110;2022-08-25T09:59:18;5.97;;;3.90;;
34960;SDS011;30789;52.030;7.110;2022-08-25T10:01:47;3.72;;;3.33;;
34960;SDS011;30789;52.030;7.110;2022-08-25T10:04:15;5.97;;;3.58;;
34960;SDS011;30789;52.030;7.110;2022-08-25T10:06:50;5.65;;;3.33;;
34960;SDS011;30789;52.030;7.110;2022-08-25T10:09:21;3.85;;;3.17;;
34960;SDS011;30789;52.030;7.110;2022-08-25T10:11:50;4.70;;;3.33;;
34960;SDS011;30789;52.030;7.110;2022-08-25T10:14:19;4.60;;;2.72;;
34960;SDS011;30789;52.030;7.110;2022-08-25T10:16:46;5.45;;;3.22;;
34960;SDS011;30789;52.030;7.110;2022-08-25T10:19:21;4.93;;;3.47;;
34960;SDS011;30789;52.030;7.110;2022-08-25T10:22:00;3.33;;;3.03;;
34960;SDS011;30789;52.030;7.110;2022-08-25T10:24:27;3.45;;;2.90;;
34960;SDS011;30789;52.030;7.110;2022-08-25T10:26:54;4.00;;;2.90;;
34960;SDS011;30789;52.030;7.110;2022-08-25T10:29:28;4.07;;;2.95;;
34960;SDS011;30789;52.030;7.110;2022-08-25T10:31:56;3.25;;;2.92;;
34960;SDS011;30789;52.030;7.110;2022-08-25T10:34:29;3.72;;;3.25;;
34960;SDS011;30789;52.030;7.110;2022-08-25T10:37:01;3.95;;;3.38;;
34960;SDS011;30789;52.030;7.110;2022-08-25T10:39:33;4.40;;;2.97;;
34960;SDS011;30789;52.030;7.110;2022-08-25T10:42:02;3.03;;;2.70;;
34960;SDS011;30789;52.030;7.110;2022-08-25T10:44:31;3.40;;;2.65;;
34960;SDS011;30789;52.030;7.110;2022-08-25T10:47:22;4.18;;;2.53;;
34960;SDS011;30789;52.030;7.110;2022-08-25T10:49:54;4.57;;;2.78;;
34960;SDS011;30789;52.030;7.110;2022-08-25T10:52:22;3.20;;;2.90;;
34960;SDS011;30789;52.030;7.110;2022-08-25T10:54:57;5.55;;;3.17;;
34960;SDS011;30789;52.030;7.110;2022-08-25T10:57:28;3.60;;;2.70;;
34960;SDS011;30789;52.030;7.110;2022-08-25T10:59:59;4.32;;;2.85;;
34960;SDS011;30789;52.030;7.110;2022-08-25T11:02:50;3.47;;;2.95;;
34960;SDS011;30789;52.030;7.110;2022-08-25T11:05:22;5.22;;;2.72;;
34960;SDS011;30789;52.030;7.110;2022-08-25T11:07:50;4.05;;;2.60;;
34960;SDS011;30789;52.030;7.110;2022-08-25T11:10:25;3.03;;;2.50;;
34960;SDS011;30789;52.030;7.110;2022-08-25T11:12:53;5.10;;;2.63;;
34960;SDS011;30789;52.030;7.110;2022-08-25T11:15:21;3.60;;;2.70;;
34960;SDS011;30789;52.030;7.110;2022-08-25T11:17:50;3.70;;;2.55;;
34960;SDS011;30789;52.030;7.110;2022-08-25T11:20:19;2.50;;;2.20;;
34960;SDS011;30789;52.030;7.110;2022-08-25T11:22:49;2.90;;;2.60;;
34960;SDS011;30789;52.030;7.110;2022-08-25T11:25:18;3.40;;;2.55;;
34960;SDS011;30789;52.030;7.110;2022-08-25T11:27:48;6.88;;;2.63;;
34960;SDS011;30789;52.030;7.110;2022-08-25T11:30:18;2.75;;;2.47;;
34960;SDS011;30789;52.030;7.110;2022-08-25T11:32:46;3.13;;;2.05;;
34960;SDS011;30789;52.030;7.110;2022-08-25T11:35:13;5.82;;;2.55;;
34960;SDS011;30789;52.030;7.110;2022-08-25T11:37:43;2.38;;;2.15;;
34960;SDS011;30789;52.030;7.110;2022-08-25T11:40:16;2.93;;;2.07;;
34960;SDS011;30789;52.030;7.110;2022-08-25T11:42:48;2.30;;;2.10;;
34960;SDS011;30789;52.030;7.110;2022-08-25T11:45:19;3.35;;;2.17;;
34960;SDS011;30789;52.030;7.110;2022-08-25T11:47:52;4.00;;;2.30;;
34960;SDS011;30789;52.030;7.110;2022-08-25T11:50:24;6.07;;;2.38;;
34960;SDS011;30789;52.030;7.110;2022-08-25T11:52:52;4.38;;;2.38;;
34960;SDS011;30789;52.030;7.110;2022-08-25T11:55:22;3.08;;;1.98;;
34960;SDS011;30789;52.030;7.110;2022-08-25T11:57:51;3.22;;;1.88;;
34960;SDS011;30789;52.030;7.110;2022-08-25T12:00:37;2.78;;;1.65;;
34960;SDS011;30789;52.030;7.110;2022-08-25T12:08:46;2.22;;;1.83;;
34960;SDS011;30789;52.030;7.110;2022-08-25T12:13:57;2.13;;;1.70;;
34960;SDS011;30789;52.030;7.110;2022-08-25T12:16:37;3.63;;;1.92;;
34960;SDS011;30789;52.030;7.110;2022-08-25T12:19:23;4.68;;;1.85;;
34960;SDS011;30789;52.030;7.110;2022-08-25T12:21:50;4.00;;;2.08;;
34960;SDS011;30789;52.030;7.110;2022-08-25T12:24:18;4.47;;;1.83;;
34960;SDS011;30789;52.030;7.110;2022-08-25T12:26:53;7.75;;;1.88;;
34960;SDS011;30789;52.030;7.110;2022-08-25T12:29:25;3.25;;;2.10;;
34960;SDS011;30789;52.030;7.110;2022-08-25T12:34:53;2.23;;;1.90;;
34960;SDS011;30789;52.030;7.110;2022-08-25T12:37:28;2.00;;;1.83;;
34960;SDS011;30789;52.030;7.110;2022-08-25T12:39:56;3.70;;;1.80;;
34960;SDS011;30789;52.030;7.110;2022-08-25T12:42:27;2.90;;;1.38;;
34960;SDS011;30789;52.030;7.110;2022-08-25T12:45:10;4.20;;;1.75;;
34960;SDS011;30789;52.030;7.110;2022-08-25T12:47:39;2.20;;;1.75;;
34960;SDS011;30789;52.030;7.110;2022-08-25T12:52:51;2.03;;;1.80;;
34960;SDS011;30789;52.030;7.110;2022-08-25T12:55:18;4.15;;;2.13;;
34960;SDS011;30789;52.030;7.110;2022-08-25T12:57:48;2.65;;;1.98;;
34960;SDS011;30789;52.030;7.110;2022-08-25T13:00:19;2.13;;;1.65;;
34960;SDS011;30789;52.030;7.110;2022-08-25T13:02:57;3.08;;;1.40;;
34960;SDS011;30789;52.030;7.110;2022-08-25T13:05:39;3.80;;;1.80;;
34960;SDS011;30789;52.030;7.110;2022-08-25T13:08:18;1.88;;;1.52;;
34960;SDS011;30789;52.030;7.110;2022-08-25T13:10:48;1.48;;;1.38;;
34960;SDS011;30789;52.030;7.110;2022-08-25T13:13:18;2.45;;;1.90;;
34960;SDS011;30789;52.030;7.110;2022-08-25T13:15:58;3.47;;;2.28;;
34960;SDS011;30789;52.030;7.110;2022-08-25T13:18:26;2.63;;;1.65;;
34960;SDS011;30789;52.030;7.110;2022-08-25T13:20:53;1.73;;;1.63;;
34960;SDS011;30789;52.030;7.110;2022-08-25T13:23:21;2.38;;;1.80;;
34960;SDS011;30789;52.030;7.110;2022-08-25T13:25:51;3.03;;;2.00;;
34960;SDS011;30789;52.030;7.110;2022-08-25T13:28:19;3.67;;;2.10;;
34960;SDS011;30789;52.030;7.110;2022-08-25T13:30:46;3.78;;;1.73;;
34960;SDS011;30789;52.030;7.110;2022-08-25T13:33:22;3.92;;;2.38;;
34960;SDS011;30789;52.030;7.110;2022-08-25T13:35:49;2.75;;;2.00;;
34960;SDS011;30789;52.030;7.110;2022-08-25T13:38:36;3.92;;;2.15;;
34960;SDS011;30789;52.030;7.110;2022-08-25T13:41:02;2.55;;;1.70;;
34960;SDS011;30789;52.030;7.110;2022-08-25T13:43:28;3.28;;;1.73;;
34960;SDS011;30789;52.030;7.110;2022-08-25T13:45:55;2.30;;;2.10;;
34960;SDS011;30789;52.030;7.110;2022-08-25T13:48:31;2.20;;;2.00;;
34960;SDS011;30789;52.030;7.110;2022-08-25T13:51:04;3.50;;;3.10;;
34960;SDS011;30789;52.030;7.110;2022-08-25T13:53:31;2.60;;;2.40;;
34960;SDS011;30789;52.030;7.110;2022-08-25T13:55:58;3.63;;;2.47;;
34960;SDS011;30789;52.030;7.110;2022-08-25T13:58:25;4.03;;;2.60;;
34960;SDS011;30789;52.030;7.110;2022-08-25T14:01:00;2.92;;;2.60;;
34960;SDS011;30789;52.030;7.110;2022-08-25T14:03:28;2.85;;;2.40;;
34960;SDS011;30789;52.030;7.110;2022-08-25T14:06:04;3.42;;;2.60;;
34960;SDS011;30789;52.030;7.110;2022-08-25T14:08:32;4.80;;;2.50;;
34960;SDS011;30789;52.030;7.110;2022-08-25T14:11:05;4.10;;;2.58;;
34960;SDS011;30789;52.030;7.110;2022-08-25T14:13:32;5.47;;;2.70;;
34960;SDS011;30789;52.030;7.110;2022-08-25T14:16:05;7.07;;;2.63;;
34960;SDS011;30789;52.030;7.110;2022-08-25T14:18:32;3.55;;;2.30;;
34960;SDS011;30789;52.030;7.110;2022-08-25T14:20:59;2.95;;;2.65;;
34960;SDS011;30789;52.030;7.110;2022-08-25T14:23:28;3.53;;;2.80;;
34960;SDS011;30789;52.030;7.110;2022-08-25T14:25:56;3.95;;;2.80;;
34960;SDS011;30789;52.030;7.110;2022-08-25T14:28:25;2.88;;;2.50;;
34960;SDS011;30789;52.030;7.110;2022-08-25T14:30:53;3.22;;;2.42;;
34960;SDS011;30789;52.030;7.110;2022-08-25T14:33:21;3.90;;;2.83;;
34960;SDS011;30789;52.030;7.110;2022-08-25T14:35:50;2.78;;;2.45;;
34960;SDS011;30789;52.030;7.110;2022-08-25T14:38:17;3.53;;;2.65;;
34960;SDS011;30789;52.030;7.110;2022-08-25T14:40:45;3.20;;;2.90;;
34960;SDS011;30789;52.030;7.110;2022-08-25T14:43:12;4.97;;;2.85;;
34960;SDS011;30789;52.030;7.110;2022-08-25T14:45:39;4.40;;;2.40;;
34960;SDS011;30789;52.030;7.110;2022-08-25T14:48:07;4.57;;;3.03;;
34960;SDS011;30789;52.030;7.110;2022-08-25T14:50:34;3.63;;;2.58;;
34960;SDS011;30789;52.030;7.110;2022-08-25T14:53:01;4.43;;;2.60;;
34960;SDS011;30789;52.030;7.110;2022-08-25T14:55:27;3.28;;;2.67;;
34960;SDS011;30789;52.030;7.110;2022-08-25T14:57:55;4.75;;;3.17;;
34960;SDS011;30789;52.030;7.110;2022-08-25T15:00:22;3.95;;;2.40;;
34960;SDS011;30789;52.030;7.110;2022-08-25T15:02:48;4.15;;;2.90;;
34960;SDS011;30789;52.030;7.110;2022-08-25T15:05:15;4.43;;;2.67;;
34960;SDS011;30789;52.030;7.110;2022-08-25T15:07:46;4.47;;;3.05;;
34960;SDS011;30789;52.030;7.110;2022-08-25T15:10:30;4.07;;;2.88;;
34960;SDS011;30789;52.030;7.110;2022-08-25T15:12:57;5.03;;;3.05;;